»·PEaware :: N75232 KSNA-KBUR

N75232 :: KSNA-KBUR

FLIGHT INFORMATION

Flight Status: Arrived
Operator: Privately registered:
United States
More flights under this callsign
Pilot: Daniel B. (28719)
Aircraft: CESSNA 172 SKYHAWK
(C172)
More flights by this aircraft type
Origin: KSNA John Wayne-Orange Co
United States
Destination: KBUR Bob Hope-Burbank
United States
More flights between these airports :: More routes between these airports
Route: SLI V23 POPPR SMOR125 SMO SMOR311 SILEX
File this flight plan on PilotEdge
Remarks:
Altitude:
(Current/Filed)
4,000ft
Speed:
(Current/Filed)
115kts
Departed: 07-May-20 04:53 PM
Arrived: 07-May-20 05:44 PM
Distance/Time
Traveled:
40nm/0:51
Distance/Time
To Go:
Arrived

Flight Plot

Page will automatically refresh every two minutes.

Flight plan parsing failed; only flown route is shown


Map Options




Map Legend


Flown Route
Filed Route
Departure Airport
Arrival Airport
Navaid (VOR, NDB)
Fix

Horizontal Profiles

Position Reports

Time Latitude Longitude Heading Altitude Ground
Speed
07-May-20 16:31 33.674107 -117.865557 117 60ft 0kts
07-May-20 16:32 33.674107 -117.865557 117 60ft 0kts
07-May-20 16:33 33.674107 -117.865557 117 60ft 0kts
07-May-20 16:34 33.674107 -117.865557 117 60ft 0kts
07-May-20 16:35 33.674107 -117.865557 117 60ft 0kts
07-May-20 16:36 33.674107 -117.865557 117 60ft 0kts
07-May-20 16:37 33.674107 -117.865557 117 60ft 0kts
07-May-20 16:38 33.674107 -117.865557 117 60ft 0kts
07-May-20 16:40 33.674107 -117.865557 117 60ft 0kts
07-May-20 16:41 33.674107 -117.865557 117 60ft 0kts
07-May-20 16:42 33.674107 -117.865557 117 60ft 0kts
07-May-20 16:43 33.674107 -117.865557 117 60ft 0kts
07-May-20 16:44 33.674107 -117.865557 117 60ft 0kts
07-May-20 16:45 33.674107 -117.865557 117 60ft 0kts
07-May-20 16:46 33.674107 -117.865557 117 60ft 0kts
07-May-20 16:47 33.674107 -117.865557 117 60ft 0kts
07-May-20 16:48 33.674357 -117.865978 298 60ft 8kts
07-May-20 16:49 33.677264 -117.864474 27 60ft 23kts
07-May-20 16:50 33.680002 -117.863719 296 60ft 3kts
07-May-20 16:51 33.680011 -117.863742 293 60ft 0kts
07-May-20 16:52 33.680011 -117.863742 293 60ft 0kts
07-May-20 16:53 33.675873 -117.866879 207 140ft 66kts
07-May-20 16:54 33.662847 -117.884594 233 884ft 77kts
07-May-20 16:55 33.651150 -117.908354 235 1713ft 80kts
07-May-20 16:55 33.637838 -117.934451 234 2027ft 107kts
07-May-20 16:57 33.610170 -117.987957 251 2197ft 96kts
07-May-20 16:57 33.625599 -118.002024 341 2874ft 95kts
07-May-20 16:58 33.651583 -118.007312 343 3551ft 94kts
07-May-20 17:00 33.680369 -118.014984 338 4017ft 114kts
07-May-20 17:00 33.702720 -118.023086 340 4042ft 121kts
07-May-20 17:01 33.728521 -118.028321 348 4018ft 121kts
07-May-20 17:02 33.753322 -118.031694 349 3996ft 121kts
07-May-20 17:03 33.776435 -118.038096 313 3963ft 118kts
07-May-20 17:04 33.787755 -118.061626 284 4008ft 111kts
07-May-20 17:05 33.794654 -118.088407 283 4039ft 111kts
07-May-20 17:06 33.800425 -118.114561 278 4032ft 113kts
07-May-20 17:07 33.806841 -118.139934 284 4025ft 113kts
07-May-20 17:08 33.812913 -118.165032 281 4014ft 112kts
07-May-20 17:09 33.819027 -118.189476 281 4002ft 112kts
07-May-20 17:10 33.824896 -118.214842 282 3989ft 112kts
07-May-20 17:11 33.830855 -118.240449 281 3981ft 111kts
07-May-20 17:12 33.836922 -118.266579 282 4000ft 109kts
07-May-20 17:13 33.846637 -118.290721 315 3976ft 114kts
07-May-20 17:14 33.863520 -118.305241 316 3998ft 112kts
07-May-20 17:15 33.878743 -118.323008 312 4002ft 112kts
07-May-20 17:16 33.895052 -118.340674 313 4011ft 112kts
07-May-20 17:17 33.912251 -118.358328 316 4019ft 113kts
07-May-20 17:18 33.930373 -118.375773 316 4024ft 113kts
07-May-20 17:19 33.948003 -118.394077 315 4026ft 114kts
07-May-20 17:20 33.966950 -118.413050 317 4028ft 115kts
07-May-20 17:21 33.986195 -118.431661 315 4032ft 115kts
07-May-20 17:22 34.006883 -118.452970 317 4033ft 116kts
07-May-20 17:23 34.031833 -118.473885 321 4043ft 116kts
07-May-20 17:24 34.059859 -118.499864 314 4021ft 117kts
07-May-20 17:25 34.087897 -118.529365 313 3988ft 116kts
07-May-20 17:26 34.114229 -118.556129 317 3944ft 117kts
07-May-20 17:27 34.139051 -118.583136 298 4039ft 110kts
07-May-20 17:28 34.155159 -118.621131 294 4059ft 112kts
07-May-20 17:29 34.171890 -118.660458 291 4057ft 113kts
07-May-20 17:30 34.198703 -118.667062 66 4118ft 114kts
07-May-20 17:31 34.200029 -118.634638 92 4026ft 96kts
07-May-20 17:32 34.200156 -118.609382 90 3966ft 93kts
07-May-20 17:33 34.200049 -118.584789 91 3998ft 94kts
07-May-20 17:34 34.199910 -118.561436 91 3992ft 88kts
07-May-20 17:35 34.199818 -118.537924 93 3652ft 98kts
07-May-20 17:36 34.199373 -118.513966 93 3296ft 97kts
07-May-20 17:37 34.199190 -118.490201 92 2879ft 93kts
07-May-20 17:38 34.199079 -118.466012 94 2445ft 95kts
07-May-20 17:39 34.198656 -118.441303 92 1993ft 92kts
07-May-20 17:40 34.198297 -118.416651 95 1551ft 91kts
07-May-20 17:41 34.198248 -118.395687 96 1250ft 79kts
07-May-20 17:42 34.198059 -118.376531 94 930ft 72kts
07-May-20 17:43 34.197805 -118.362341 89 719ft 25kts
07-May-20 17:44 34.198604 -118.360251 2 717ft 0kts
07-May-20 17:45 34.198604 -118.360251 2 717ft 0kts
07-May-20 17:46 34.199646 -118.359615 86 720ft 7kts
07-May-20 17:47 34.199535 -118.359410 345 719ft 0kts
07-May-20 17:48 34.199535 -118.359410 345 719ft 0kts
07-May-20 17:49 34.199535 -118.359410 345 719ft 0kts
07-May-20 17:50 34.199535 -118.359410 345 719ft 0kts
07-May-20 17:51 34.199535 -118.359410 345 719ft 0kts
07-May-20 17:52 34.199535 -118.359410 345 719ft 0kts
07-May-20 17:53 34.199535 -118.359410 345 719ft 0kts
07-May-20 17:54 34.199535 -118.359410 345 719ft 0kts
07-May-20 17:55 34.199535 -118.359410 345 719ft 0kts
07-May-20 17:56 34.199535 -118.359410 345 719ft 0kts
07-May-20 17:57 34.199535 -118.359410 345 719ft 0kts

Navigation Log

Ident Type
Flight plan parsing failed, navigation log unavailable